• Join FlightAware (Why Join?)
  • Login
  • US Flag 
01:46AM EST


 

Airport Tracker/Info


-or-


 

Live Flight TrackerFlight Track Log ✈ QTR46 ✈ 21-Apr-2013 ✈ EGCC / MAN - OTBD

Flight Track Log - Related Links

Times and Time Zones

All times are in EDT time to prevent confusion due to time zone crossing. See the QTR46 flight status page for this flight to view local times or setup timezone preferences in your user account.

Time Position Orientation Groundspeed Altitude Reporting Facility
EDT Latitude Longitude Course Direction KTS MPH feet Rate Location/Type
10:14AM 53.3247 -2.3413 249° West 174 200 500  Level FlightAware UK
10:14AM 53.3195 -2.3641 249° West 188 216 900 1,680 Climbing FlightAware UK
10:15AM 53.3248 -2.3956 286° West 192 221 1,700 1,380 Climbing FlightAware UK
10:16AM 53.3798 -2.4276 341° North 230 265 2,900 1,200 Climbing FlightAware UK
10:16AM 53.4074 -2.4415 343° North 260 299 3,400 1,800 Climbing FlightAware UK
10:16AM 53.4291 -2.4521 344° North 266 306 4,200 2,700 Climbing FlightAware UK
10:17AM 53.4601 -2.4409 12° North 272 313 5,300 2,820 Climbing FlightAware UK
10:17AM 53.4759 -2.4085 51° Northeast 274 315 6,200 3,000 Climbing FlightAware UK
10:17AM 53.4810 -2.3678 78° East 276 318 7,100 2,520 Climbing FlightAware UK
10:18AM 53.4869 -2.3127 80° East 284 327 8,000 2,340 Climbing FlightAware UK
10:18AM 53.4924 -2.2569 81° East 290 334 9,000 1,800 Climbing FlightAware UK
10:19AM 53.4968 -2.2113 81° East 312 359 9,300 960 Climbing FlightAware UK
10:19AM 53.5029 -2.1475 81° East 336 387 9,700 1,680 Climbing FlightAware UK
10:19AM 53.5078 -2.0981 81° East 342 394 10,500 2,460 Climbing FlightAware UK
10:20AM 53.5126 -2.0481 81° East 348 400 11,200 2,040 Climbing FlightAware UK
10:20AM 53.5207 -1.9628 81° East 354 407 12,200 2,100 Climbing FlightAware UK
10:20AM 53.5254 -1.9112 81° East 360 414 12,900 2,340 Climbing FlightAware UK
10:21AM 53.5182 -1.8422 100° East 362 417 13,800 2,220 Climbing FlightAware UK
10:21AM 53.5096 -1.7908 106° East 368 423 14,500 2,220 Climbing FlightAware UK
10:21AM 53.4973 -1.7227 107° East 370 426 15,400 2,220 Climbing FlightAware UK
10:22AM 53.4819 -1.6365 107° East 380 437 16,500 2,280 Climbing FlightAware UK
10:23AM 53.4604 -1.5137 106° East 388 447 18,200 2,220 Climbing FlightAware UK
10:23AM 53.4480 -1.4446 107° East 392 451 19,000 1,980 Climbing FlightAware UK
10:23AM 53.4386 -1.3926 107° East 394 453 19,600 1,800 Climbing FlightAware UK
10:24AM 53.4258 -1.3228 107° East 398 458 20,300 1,620 Climbing FlightAware UK
10:24AM 53.4127 -1.2508 107° East 406 467 20,900 1,560 Climbing FlightAware UK
10:24AM 53.4028 -1.1961 107° East 406 467 21,400 1,620 Climbing FlightAware UK
10:25AM 53.3862 -1.1053 107° East 416 479 22,200 1,740 Climbing FlightAware UK
10:25AM 53.3763 -1.0505 107° East 418 481 22,800 1,500 Climbing FlightAware UK
10:26AM 53.3497 -0.9031 107° East 422 486 23,900 1,320 Climbing FlightAware UK
10:26AM 53.3394 -0.8463 107° East 424 488 24,300 1,320 Climbing FlightAware UK
10:27AM 53.3293 -0.7903 107° East 428 493 24,700 1,320 Climbing FlightAware UK
10:27AM 53.3188 -0.7329 107° East 434 499 25,100 1,500 Climbing FlightAware UK
10:27AM 53.3081 -0.6761 107° East 436 502 25,600 1,380 Climbing FlightAware UK
10:28AM 53.2938 -0.6005 107° East 434 499 26,100 1,140 Climbing FlightAware UK
10:29AM 53.2575 -0.4072 107° East 446 513 27,200 960 Climbing FlightAware UK
10:30AM 53.1924 -0.0708 108° East 452 520 28,800 900 Climbing FlightAware UK
10:31AM 53.1724 0.0296 108° East 456 525 29,200 720 Climbing FlightAware UK
10:31AM 53.1603 0.0905 108° East 464 534 29,400 1,320 Climbing FlightAware UK
10:32AM 53.1241 0.2731 108° East 454 522 30,800 1,260 Climbing FlightAware UK
10:33AM 53.1065 0.4834 98° East 446 513 31,900 960 Climbing FlightAware UK
10:33AM 53.1019 0.5685 95° East 448 516 32,200 840 Climbing FlightAware UK
10:35AM 53.0811 0.9328 95° East 448 516 33,700 780 Climbing FlightAware UK
10:36AM 53.0762 1.0175 95° East 448 516 33,900 480 Climbing FlightAware UK
10:36AM 53.0711 1.1019 96° East 448 516 34,100 540 Climbing FlightAware UK
10:36AM 53.0678 1.1663 95° East 450 518 34,300 540 Climbing FlightAware UK
10:37AM 53.0633 1.2514 95° East 450 518 34,500 420 Climbing FlightAware UK
10:37AM 53.0573 1.3584 95° East 448 516 34,700 420 Climbing FlightAware UK
10:38AM 53.0524 1.4447 95° East 450 518 34,900 480 Climbing FlightAware UK
10:38AM 53.0476 1.5305 95° East 448 516 35,100 480 Climbing FlightAware UK
10:38AM 53.0420 1.6176 96° East 450 518 35,300 360 Climbing FlightAware UK
10:39AM 53.0345 1.7462 95° East 448 516 35,500 180 Climbing FlightAware UK
10:39AM 53.0278 1.8551 96° East 450 518 35,500  Level FlightAware UK
10:40AM 53.0238 1.9214 96° East 452 520 35,500  Level FlightAware UK
10:40AM 53.0197 1.9879 96° East 456 525 35,500  Level FlightAware UK
10:41AM 53.0101 2.1440 96° East 462 532 35,500  Level FlightAware UK
10:41AM 53.0058 2.2121 96° East 464 534 35,500  Level FlightAware UK
10:41AM 53.0015 2.2796 96° East 464 534 35,500  Level FlightAware UK
10:42AM 52.9928 2.4148 96° East 466 536 35,500  Level FlightAware UK
10:42AM 52.9883 2.4824 96° East 466 536 35,500  Level FlightAware UK
10:43AM 52.9809 2.5951 96° East 468 539 35,500  Level FlightAware UK
10:43AM 52.9750 2.6852 96° East 470 541 35,500  Level FlightAware UK
10:43AM 52.9704 2.7534 96° East 474 545 35,500  Level FlightAware UK
10:44AM 52.9655 2.8213 97° East 470 541 35,500  Level FlightAware UK
10:44AM 52.9607 2.8879 97° East 468 539 35,500  Level FlightAware UK
10:45AM 52.9521 3.0173 96° East 462 532 35,500  Level FlightAware UK
10:45AM 52.9474 3.0823 97° East 462 532 35,500  Level FlightAware UK
10:45AM 52.9411 3.1693 97° East 460 529 35,500  Level FlightAware UK
10:46AM 52.9319 3.3002 97° East 464 534 35,500  Level FlightAware UK
10:46AM 52.9239 3.4095 97° East 462 532 35,500  Level FlightAware UK
10:47AM 52.9157 3.5197 97° East 462 532 35,500  Level FlightAware UK
10:47AM 52.9107 3.5855 97° East 466 536 35,500  Level FlightAware UK
10:48AM 52.8975 3.7614 97° East 468 539 35,500  Level FlightAware UK
10:48AM 52.8923 3.8274 97° East 466 536 35,500  Level FlightAware UK
10:49AM 52.8855 3.9150 97° East 466 536 35,500  Level FlightAware UK
10:49AM 52.8766 4.0241 98° East 466 536 35,500  Level FlightAware UK
10:50AM 52.8664 4.1549 97° East 464 534 35,500  Level FlightAware UK
10:50AM 52.8593 4.2419 98° East 464 534 35,500  Level FlightAware UK
10:51AM 52.8488 4.3722 98° East 466 536 35,500  Level FlightAware UK
10:52AM 52.8368 4.5233 97° East 464 534 35,500  Level FlightAware UK
10:52AM 52.8239 4.6730 98° East 462 532 35,500  Level FlightAware UK
10:53AM 52.8186 4.7380 98° East 464 534 35,500  Level FlightAware UK
10:53AM 52.8077 4.8662 98° East 460 529 35,500  Level FlightAware UK
10:53AM 52.8025 4.9302 98° East 464 534 35,500  Level FlightAware UK
10:54AM 52.7970 4.9943 98° East 464 534 35,500  Level FlightAware UK
10:54AM 52.7912 5.0582 99° East 462 532 35,500  Level FlightAware UK
10:54AM 52.7832 5.1433 99° East 462 532 35,500  Level FlightAware UK
10:55AM 52.7773 5.2070 99° East 462 532 35,500  Level FlightAware UK
10:55AM 52.7715 5.2708 98° East 462 532 35,500  Level FlightAware UK
10:55AM 52.7662 5.3346 98° East 462 532 35,500  Level FlightAware UK
10:56AM 52.7606 5.3984 98° East 464 534 35,500  Level FlightAware UK
10:56AM 52.7531 5.4834 98° East 464 534 35,500  Level FlightAware UK
10:56AM 52.7465 5.5468 100° East 464 534 35,500  Level FlightAware UK
10:57AM 52.7392 5.6318 98° East 462 532 35,500  Level FlightAware UK
10:57AM 52.7333 5.6952 99° East 460 529 35,500  Level FlightAware UK
10:58AM 52.7234 5.8008 99° East 458 527 35,500  Level FlightAware UK
10:58AM 52.7194 5.8657 96° East 458 527 35,500  Level FlightAware UK
10:58AM 52.7135 5.9292 99° East 458 527 35,500  Level FlightAware UK
11:00AM 52.6665 6.1335 111° Southeast  Level Estimated
11:07AM 52.3637 7.4040 111° Southeast  Level Estimated
11:08AM 52.3193 7.5841 112° Southeast  Level Estimated
11:09AM 52.2746 7.7638 112° Southeast  Level Estimated
11:10AM 52.2297 7.9431 112° Southeast  Level Estimated
11:11AM 52.1846 8.1221 112° Southeast  Level Estimated
11:12AM 52.1391 8.3007 112° Southeast  Level Estimated
11:13AM 52.0934 8.4790 113° Southeast  Level Estimated
11:14AM 52.0474 8.6569 113° Southeast  Level Estimated
11:15AM 52.0011 8.8344 113° Southeast  Level Estimated
11:16AM 51.9546 9.0115 113° Southeast  Level Estimated
11:17AM 51.9078 9.1883 113° Southeast  Level Estimated
11:18AM 51.8608 9.3647 113° Southeast  Level Estimated
11:19AM 51.8134 9.5408 113° Southeast  Level Estimated
11:20AM 51.7659 9.7164 114° Southeast  Level Estimated
11:21AM 51.7180 9.8918 114° Southeast  Level Estimated
11:22AM 51.6699 10.0667 114° Southeast  Level Estimated
11:23AM 51.6216 10.2412 114° Southeast  Level Estimated
11:24AM 51.5729 10.4154 114° Southeast  Level Estimated
11:25AM 51.5241 10.5892 114° Southeast  Level Estimated
11:26AM 51.4749 10.7627 114° Southeast  Level Estimated
11:27AM 51.4255 10.9358 115° Southeast  Level Estimated
11:28AM 51.3759 11.1084 115° Southeast  Level Estimated
11:29AM 51.3260 11.2808 115° Southeast  Level Estimated
11:30AM 51.2758 11.4527 115° Southeast  Level Estimated
11:31AM 51.2254 11.6243 115° Southeast  Level Estimated
11:32AM 51.1748 11.7955 115° Southeast  Level Estimated
11:33AM 51.1239 11.9663 115° Southeast  Level Estimated
11:34AM 51.0728 12.1367 115° Southeast  Level Estimated
11:35AM 51.0214 12.3068 116° Southeast  Level Estimated
11:36AM 50.9697 12.4764 116° Southeast  Level Estimated
11:37AM 50.9178 12.6457 116° Southeast  Level Estimated
11:38AM 50.8657 12.8146 116° Southeast  Level Estimated
11:39AM 50.8133 12.9832 116° Southeast  Level Estimated
11:40AM 50.7607 13.1514 116° Southeast  Level Estimated
11:41AM 50.7079 13.3192 116° Southeast  Level Estimated
11:42AM 50.6548 13.4866 117° Southeast  Level Estimated
11:43AM 50.6014 13.6536 117° Southeast  Level Estimated
11:44AM 50.5478 13.8202 117° Southeast  Level Estimated
11:45AM 50.4940 13.9865 117° Southeast  Level Estimated
11:46AM 50.4400 14.1524 117° Southeast  Level Estimated
11:47AM 50.3857 14.3179 117° Southeast  Level Estimated
11:48AM 50.3312 14.4831 117° Southeast  Level Estimated
11:49AM 50.2764 14.6478 117° Southeast  Level Estimated
11:50AM 50.2214 14.8122 118° Southeast  Level Estimated
11:51AM 50.1662 14.9762 118° Southeast  Level Estimated
11:52AM 50.1108 15.1398 118° Southeast  Level Estimated
11:53AM 50.0551 15.3031 118° Southeast  Level Estimated
11:54AM 49.9992 15.4659 118° Southeast  Level Estimated
11:55AM 49.9431 15.6284 118° Southeast  Level Estimated
11:56AM 49.8867 15.7905 118° Southeast  Level Estimated
11:57AM 49.8301 15.9522 118° Southeast  Level Estimated
11:58AM 49.7733 16.1136 119° Southeast  Level Estimated
11:59AM 49.7163 16.2745 119° Southeast  Level Estimated
12:00PM 49.6590 16.4351 119° Southeast  Level Estimated
12:01PM 49.6016 16.5953 119° Southeast  Level Estimated
12:02PM 49.5439 16.7551 119° Southeast  Level Estimated
12:03PM 49.4860 16.9146 119° Southeast  Level Estimated
12:04PM 49.4278 17.0737 119° Southeast  Level Estimated
12:05PM 49.3695 17.2324 119° Southeast  Level Estimated
12:06PM 49.3109 17.3907 120° Southeast  Level Estimated
12:07PM 49.2521 17.5486 120° Southeast  Level Estimated
12:08PM 49.1931 17.7062 120° Southeast  Level Estimated
12:09PM 49.1339 17.8634 120° Southeast  Level Estimated
12:10PM 49.0745 18.0202 120° Southeast  Level Estimated
12:11PM 49.0149 18.1767 120° Southeast  Level Estimated
12:12PM 48.9550 18.3327 120° Southeast  Level Estimated
12:13PM 48.8949 18.4884 120° Southeast  Level Estimated
12:14PM 48.8347 18.6437 120° Southeast  Level Estimated
12:15PM 48.7742 18.7987 121° Southeast  Level Estimated
12:16PM 48.7135 18.9533 121° Southeast  Level Estimated
12:17PM 48.6526 19.1075 121° Southeast  Level Estimated
12:18PM 48.5915 19.2613 121° Southeast  Level Estimated
12:19PM 48.5302 19.4147 121° Southeast  Level Estimated
12:20PM 48.4687 19.5678 121° Southeast  Level Estimated
12:21PM 48.4070 19.7205 121° Southeast  Level Estimated
12:22PM 48.3451 19.8729 121° Southeast  Level Estimated
12:23PM 48.2830 20.0248 122° Southeast  Level Estimated
12:24PM 48.2207 20.1764 122° Southeast  Level Estimated
12:25PM 48.1582 20.3277 122° Southeast  Level Estimated
12:26PM 48.0955 20.4785 122° Southeast  Level Estimated
12:27PM 48.0326 20.6290 122° Southeast  Level Estimated
12:28PM 47.9695 20.7791 122° Southeast  Level Estimated
12:29PM 47.9062 20.9289 122° Southeast  Level Estimated
12:30PM 47.8427 21.0783 122° Southeast  Level Estimated
12:31PM 47.7790 21.2273 122° Southeast  Level Estimated
12:32PM 47.7152 21.3760 123° Southeast  Level Estimated
12:33PM 47.6511 21.5243 123° Southeast  Level Estimated
12:34PM 47.5868 21.6722 123° Southeast  Level Estimated
12:35PM 47.5224 21.8198 123° Southeast  Level Estimated
12:36PM 47.4578 21.9670 123° Southeast  Level Estimated
12:37PM 47.3930 22.1138 123° Southeast  Level Estimated
12:38PM 47.3279 22.2603 123° Southeast  Level Estimated
12:39PM 47.2628 22.4064 123° Southeast  Level Estimated
12:40PM 47.1974 22.5522 123° Southeast  Level Estimated
12:41PM 47.1318 22.6976 123° Southeast  Level Estimated
12:42PM 47.0661 22.8426 124° Southeast  Level Estimated
12:43PM 47.0001 22.9873 124° Southeast  Level Estimated
12:44PM 46.9340 23.1316 124° Southeast  Level Estimated
12:45PM 46.8677 23.2756 124° Southeast  Level Estimated
12:46PM 46.8013 23.4192 124° Southeast  Level Estimated
12:47PM 46.7346 23.5625 124° Southeast  Level Estimated
12:48PM 46.6678 23.7054 124° Southeast  Level Estimated
12:49PM 46.6008 23.8479 124° Southeast  Level Estimated
12:50PM 46.5336 23.9902 124° Southeast  Level Estimated
12:51PM 46.4662 24.1320 125° Southeast  Level Estimated
12:52PM 46.3987 24.2735 125° Southeast  Level Estimated
12:53PM 46.3310 24.4146 125° Southeast  Level Estimated
12:54PM 46.2631 24.5555 125° Southeast  Level Estimated
12:55PM 46.1951 24.6959 125° Southeast  Level Estimated
12:56PM 46.1268 24.8360 125° Southeast  Level Estimated
12:57PM 46.0584 24.9758 125° Southeast  Level Estimated
12:58PM 45.9899 25.1152 125° Southeast  Level Estimated
12:59PM 45.9211 25.2542 125° Southeast  Level Estimated
01:00PM 45.8522 25.3930 125° Southeast  Level Estimated
01:01PM 45.7832 25.5313 126° Southeast  Level Estimated
01:02PM 45.7139 25.6694 126° Southeast  Level Estimated
01:03PM 45.6445 25.8071 126° Southeast  Level Estimated
01:04PM 45.5750 25.9444 126° Southeast  Level Estimated
01:05PM 45.5052 26.0814 126° Southeast  Level Estimated
01:06PM 45.4353 26.2181 126° Southeast  Level Estimated
01:07PM 45.3653 26.3544 126° Southeast  Level Estimated
01:08PM 45.2950 26.4904 126° Southeast  Level Estimated
01:09PM 45.2247 26.6261 126° Southeast  Level Estimated
01:10PM 45.1541 26.7614 126° Southeast  Level Estimated
01:11PM 45.0834 26.8964 127° Southeast  Level Estimated
01:12PM 45.0126 27.0310 127° Southeast  Level Estimated
01:13PM 44.9415 27.1653 127° Southeast  Level Estimated
01:14PM 44.8704 27.2993 127° Southeast  Level Estimated
01:15PM 44.7990 27.4330 127° Southeast  Level Estimated
01:16PM 44.7276 27.5663 127° Southeast  Level Estimated
01:17PM 44.6559 27.6993 127° Southeast  Level Estimated
01:18PM 44.5841 27.8320 127° Southeast  Level Estimated
01:19PM 44.5122 27.9643 127° Southeast  Level Estimated
01:20PM 44.4401 28.0963 127° Southeast  Level Estimated
01:21PM 44.3678 28.2280 127° Southeast  Level Estimated
01:22PM 44.2954 28.3594 128° Southeast  Level Estimated
01:23PM 44.2229 28.4904 128° Southeast  Level Estimated
01:24PM 44.1502 28.6211 128° Southeast  Level Estimated
01:25PM 44.0773 28.7515 128° Southeast  Level Estimated
01:26PM 44.0043 28.8816 128° Southeast  Level Estimated
01:27PM 43.9312 29.0114 128° Southeast  Level Estimated
01:28PM 43.8579 29.1408 128° Southeast  Level Estimated
01:29PM 43.7844 29.2699 128° Southeast  Level Estimated
01:30PM 43.7109 29.3987 128° Southeast  Level Estimated
01:31PM 43.6371 29.5272 128° Southeast  Level Estimated
01:32PM 43.5633 29.6554 128° Southeast  Level Estimated
01:33PM 43.4893 29.7832 129° Southeast  Level Estimated
01:34PM 43.4151 29.9107 129° Southeast  Level Estimated
01:35PM 43.3408 30.0380 129° Southeast  Level Estimated
01:36PM 43.2663 30.1649 129° Southeast  Level Estimated
01:37PM 43.1918 30.2915 129° Southeast  Level Estimated
01:38PM 43.1171 30.4178 129° Southeast  Level Estimated
01:39PM 43.0422 30.5438 129° Southeast  Level Estimated
01:40PM 42.9672 30.6695 129° Southeast  Level Estimated
01:41PM 42.8921 30.7948 129° Southeast  Level Estimated
01:42PM 42.8168 30.9199 129° Southeast  Level Estimated
01:43PM 42.7414 31.0447 129° Southeast  Level Estimated
01:44PM 42.6659 31.1691 130° Southeast  Level Estimated
01:45PM 42.5902 31.2933 130° Southeast  Level Estimated
01:46PM 42.5144 31.4172 130° Southeast  Level Estimated
01:47PM 42.4384 31.5407 130° Southeast  Level Estimated
01:48PM 42.3624 31.6640 130° Southeast  Level Estimated
01:49PM 42.2862 31.7869 130° Southeast  Level Estimated
01:50PM 42.2098 31.9096 130° Southeast  Level Estimated
01:51PM 42.1334 32.0320 130° Southeast  Level Estimated
01:52PM 42.0568 32.1540 130° Southeast  Level Estimated
01:53PM 41.9801 32.2758 130° Southeast  Level Estimated
01:54PM 41.9032 32.3973 130° Southeast  Level Estimated
01:55PM 41.8262 32.5185 130° Southeast  Level Estimated
01:56PM 41.7491 32.6394 131° Southeast  Level Estimated
01:57PM 41.6719 32.7600 131° Southeast  Level Estimated
01:58PM 41.5945 32.8803 131° Southeast  Level Estimated
01:59PM 41.5171 33.0004 131° Southeast  Level Estimated
02:00PM 41.4394 33.1201 131° Southeast  Level Estimated
02:01PM 41.3617 33.2396 131° Southeast  Level Estimated
02:02PM 41.2839 33.3587 131° Southeast  Level Estimated
02:03PM 41.2059 33.4776 131° Southeast  Level Estimated
02:04PM 41.1278 33.5962 131° Southeast  Level Estimated
02:05PM 41.0495 33.7145 131° Southeast  Level Estimated
02:06PM 40.9712 33.8326 131° Southeast  Level Estimated
02:07PM 40.8927 33.9503 131° Southeast  Level Estimated
02:08PM 40.8142 34.0678 131° Southeast  Level Estimated
02:09PM 40.7355 34.1850 132° Southeast  Level Estimated
02:10PM 40.6567 34.3019 132° Southeast  Level Estimated
02:11PM 40.5777 34.4186 132° Southeast  Level Estimated
02:12PM 40.4987 34.5350 132° Southeast  Level Estimated
02:13PM 40.4195 34.6511 132° Southeast  Level Estimated
02:14PM 40.3402 34.7669 132° Southeast  Level Estimated
02:15PM 40.2608 34.8825 132° Southeast  Level Estimated
02:16PM 40.1813 34.9977 132° Southeast  Level Estimated
02:17PM 40.1017 35.1127 132° Southeast  Level Estimated
02:18PM 40.0219 35.2275 132° Southeast  Level Estimated
02:19PM 39.9421 35.3420 132° Southeast  Level Estimated
02:20PM 39.8621 35.4562 132° Southeast  Level Estimated
02:21PM 39.7820 35.5701 132° Southeast  Level Estimated
02:22PM 39.7018 35.6838 132° Southeast  Level Estimated
02:23PM 39.6215 35.7972 133° Southeast  Level Estimated
02:24PM 39.5411 35.9104 133° Southeast  Level Estimated
02:25PM 39.4606 36.0233 133° Southeast  Level Estimated
02:26PM 39.3800 36.1359 133° Southeast  Level Estimated
02:27PM 39.2992 36.2482 133° Southeast  Level Estimated
02:28PM 39.2184 36.3604 133° Southeast  Level Estimated
02:29PM 39.1374 36.4722 133° Southeast  Level Estimated
02:30PM 39.0564 36.5838 133° Southeast  Level Estimated
02:31PM 38.9752 36.6951 133° Southeast  Level Estimated
02:32PM 38.8939 36.8062 133° Southeast  Level Estimated
02:33PM 38.8125 36.9170 133° Southeast  Level Estimated
02:34PM 38.7310 37.0276 133° Southeast  Level Estimated
02:35PM 38.6495 37.1380 133° Southeast  Level Estimated
02:36PM 38.5678 37.2480 133° Southeast  Level Estimated
02:37PM 38.4860 37.3578 134° Southeast  Level Estimated
02:38PM 38.4041 37.4674 134° Southeast  Level Estimated
02:39PM 38.3221 37.5767 134° Southeast  Level Estimated
02:40PM 38.2400 37.6858 134° Southeast  Level Estimated
02:41PM 38.1578 37.7947 134° Southeast  Level Estimated
02:42PM 38.0755 37.9032 134° Southeast  Level Estimated
02:43PM 37.9931 38.0116 134° Southeast  Level Estimated
02:44PM 37.9106 38.1197 134° Southeast  Level Estimated
02:45PM 37.8280 38.2275 134° Southeast  Level Estimated
02:46PM 37.7453 38.3352 134° Southeast  Level Estimated
02:47PM 37.6625 38.4425 134° Southeast  Level Estimated
02:48PM 37.5796 38.5497 134° Southeast  Level Estimated
02:49PM 37.4966 38.6566 134° Southeast  Level Estimated
02:50PM 37.4136 38.7632 134° Southeast  Level Estimated
02:51PM 37.3304 38.8697 134° Southeast  Level Estimated
02:52PM 37.2471 38.9758 135° Southeast  Level Estimated
02:53PM 37.1637 39.0818 135° Southeast  Level Estimated
02:54PM 37.0803 39.1875 135° Southeast  Level Estimated
02:55PM 36.9967 39.2930 135° Southeast  Level Estimated
02:56PM 36.9131 39.3983 135° Southeast  Level Estimated
02:57PM 36.8293 39.5033 135° Southeast  Level Estimated
02:58PM 36.7455 39.6081 135° Southeast  Level Estimated
02:59PM 36.6616 39.7127 135° Southeast  Level Estimated
03:00PM 36.5776 39.8170 135° Southeast  Level Estimated
03:01PM 36.4935 39.9211 135° Southeast  Level Estimated
03:02PM 36.4092 40.0250 135° Southeast  Level Estimated
03:03PM 36.3250 40.1287 135° Southeast  Level Estimated
03:04PM 36.2406 40.2321 135° Southeast  Level Estimated
03:05PM 36.1561 40.3353 135° Southeast  Level Estimated
03:06PM 36.0716 40.4383 135° Southeast  Level Estimated
03:07PM 35.9869 40.5411 135° Southeast  Level Estimated
03:08PM 35.9022 40.6436 136° Southeast  Level Estimated
03:09PM 35.8174 40.7459 136° Southeast  Level Estimated
03:10PM 35.7325 40.8480 136° Southeast  Level Estimated
03:11PM 35.6475 40.9499 136° Southeast  Level Estimated
03:12PM 35.5624 41.0516 136° Southeast  Level Estimated
03:13PM 35.4773 41.1531 136° Southeast  Level Estimated
03:14PM 35.3920 41.2543 136° Southeast  Level Estimated
03:15PM 35.3067 41.3554 136° Southeast  Level Estimated
03:16PM 35.2213 41.4562 136° Southeast  Level Estimated
03:17PM 35.1358 41.5568 136° Southeast  Level Estimated
03:18PM 35.0502 41.6572 136° Southeast  Level Estimated
03:19PM 34.9645 41.7574 136° Southeast  Level Estimated
03:20PM 34.8788 41.8574 136° Southeast  Level Estimated
03:21PM 34.7930 41.9571 136° Southeast  Level Estimated
03:22PM 34.7071 42.0567 136° Southeast  Level Estimated
03:23PM 34.6211 42.1560 136° Southeast  Level Estimated
03:24PM 34.5350 42.2552 136° Southeast  Level Estimated
03:25PM 34.4489 42.3541 137° Southeast  Level Estimated
03:26PM 34.3626 42.4529 137° Southeast  Level Estimated
03:27PM 34.2763 42.5514 137° Southeast  Level Estimated
03:28PM 34.1899 42.6497 137° Southeast  Level Estimated
03:29PM 34.1035 42.7479 137° Southeast  Level Estimated
03:30PM 34.0169 42.8458 137° Southeast  Level Estimated
03:31PM 33.9303 42.9435 137° Southeast  Level Estimated
03:32PM 33.8436 43.0411 137° Southeast  Level Estimated
03:33PM 33.7569 43.1384 137° Southeast  Level Estimated
03:34PM 33.6700 43.2355 137° Southeast  Level Estimated
03:35PM 33.5831 43.3325 137° Southeast  Level Estimated
03:36PM 33.4961 43.4292 137° Southeast  Level Estimated
03:37PM 33.4090 43.5258 137° Southeast  Level Estimated
03:38PM 33.3219 43.6221 137° Southeast  Level Estimated
03:39PM 33.2346 43.7183 137° Southeast  Level Estimated
03:40PM 33.1474 43.8143 137° Southeast  Level Estimated
03:41PM 33.0600 43.9101 137° Southeast  Level Estimated
03:42PM 32.9725 44.0057 137° Southeast  Level Estimated
03:43PM 32.8850 44.1011 138° Southeast  Level Estimated
03:44PM 32.7974 44.1963 138° Southeast  Level Estimated
03:45PM 32.7098 44.2913 138° Southeast  Level Estimated
03:46PM 32.6220 44.3862 138° Southeast  Level Estimated
03:47PM 32.5342 44.4808 138° Southeast  Level Estimated
03:48PM 32.4464 44.5753 138° Southeast  Level Estimated
03:49PM 32.3584 44.6696 138° Southeast  Level Estimated
03:50PM 32.2704 44.7637 138° Southeast  Level Estimated
03:51PM 32.1823 44.8576 138° Southeast  Level Estimated
03:52PM 32.0942 44.9513 138° Southeast  Level Estimated
03:53PM 32.0060 45.0449 138° Southeast  Level Estimated
03:54PM 31.9177 45.1383 138° Southeast  Level Estimated
03:55PM 31.8293 45.2315 138° Southeast  Level Estimated
03:56PM 31.7409 45.3245 138° Southeast  Level Estimated
03:57PM 31.6524 45.4173 138° Southeast  Level Estimated
03:58PM 31.5638 45.5100 138° Southeast  Level Estimated
03:59PM 31.4752 45.6025 138° Southeast  Level Estimated
04:00PM 31.3865 45.6948 138° Southeast  Level Estimated
04:01PM 31.2978 45.7870 138° Southeast  Level Estimated
04:02PM 31.2089 45.8789 138° Southeast  Level Estimated
04:03PM 31.1200 45.9707 139° Southeast  Level Estimated
04:04PM 31.0311 46.0624 139° Southeast  Level Estimated
04:05PM 30.9421 46.1538 139° Southeast  Level Estimated
04:06PM 30.8530 46.2451 139° Southeast  Level Estimated
04:07PM 30.7638 46.3362 139° Southeast  Level Estimated
04:08PM 30.6746 46.4271 139° Southeast  Level Estimated
04:09PM 30.5853 46.5179 139° Southeast  Level Estimated
04:10PM 30.4960 46.6085 139° Southeast  Level Estimated
04:11PM 30.4066 46.6990 139° Southeast  Level Estimated
04:12PM 30.3171 46.7892 139° Southeast  Level Estimated
04:13PM 30.2276 46.8794 139° Southeast  Level Estimated
04:14PM 30.1380 46.9693 139° Southeast  Level Estimated
04:15PM 30.0484 47.0591 139° Southeast  Level Estimated
04:16PM 29.9587 47.1487 139° Southeast  Level Estimated
04:17PM 29.8689 47.2382 139° Southeast  Level Estimated
04:18PM 29.7791 47.3275 139° Southeast  Level Estimated
04:19PM 29.6892 47.4166 139° Southeast  Level Estimated
04:20PM 29.5992 47.5056 139° Southeast  Level Estimated
04:21PM 29.5092 47.5944 139° Southeast  Level Estimated
04:22PM 29.4191 47.6831 139° Southeast  Level Estimated
04:23PM 29.3290 47.7716 139° Southeast  Level Estimated
04:24PM 29.2388 47.8600 139° Southeast  Level Estimated
04:25PM 29.1486 47.9482 140° Southeast  Level Estimated
04:26PM 29.0583 48.0362 140° Southeast  Level Estimated
04:27PM 28.9679 48.1241 140° Southeast  Level Estimated
04:28PM 28.8775 48.2118 140° Southeast  Level Estimated
04:29PM 28.7871 48.2994 140° Southeast  Level Estimated
04:30PM 28.6965 48.3868 140° Southeast  Level Estimated
04:31PM 28.6059 48.4741 140° Southeast  Level Estimated
04:32PM 28.5153 48.5612 140° Southeast  Level Estimated
04:33PM 28.4246 48.6482 140° Southeast  Level Estimated
04:34PM 28.3339 48.7350 140° Southeast  Level Estimated
04:35PM 28.2431 48.8217 140° Southeast  Level Estimated
04:36PM 28.1522 48.9082 140° Southeast  Level Estimated
04:37PM 28.0613 48.9946 140° Southeast  Level Estimated
04:38PM 27.9703 49.0809 140° Southeast  Level Estimated
04:39PM 27.8793 49.1670 140° Southeast  Level Estimated
04:40PM 27.7882 49.2529 140° Southeast  Level Estimated
04:41PM 27.6971 49.3387 140° Southeast  Level Estimated
04:42PM 27.6059 49.4244 140° Southeast  Level Estimated
04:43PM 27.5147 49.5099 140° Southeast  Level Estimated
04:44PM 27.4234 49.5953 140° Southeast  Level Estimated
04:45PM 27.3321 49.6805 140° Southeast  Level Estimated
04:46PM 27.2407 49.7656 140° Southeast  Level Estimated
04:47PM 27.1493 49.8506 140° Southeast  Level Estimated
04:48PM 27.0578 49.9354 140° Southeast  Level Estimated
04:49PM 26.9662 50.0201 140° Southeast  Level Estimated
04:50PM 26.8746 50.1046 141° Southeast  Level Estimated
04:51PM 26.7830 50.1890 141° Southeast  Level Estimated
04:52PM 26.6913 50.2733 141° Southeast  Level Estimated
04:53PM 26.5996 50.3574 141° Southeast  Level Estimated
04:54PM 26.5078 50.4414 141° Southeast  Level Estimated
04:55PM 26.4159 50.5253 141° Southeast  Level Estimated
04:56PM 26.3240 50.6091 141° Southeast  Level Estimated
04:57PM 26.2321 50.6926 141° Southeast  Level Estimated
04:58PM 26.1401 50.7761 141° Southeast  Level Estimated
04:59PM 26.0481 50.8595 141° Southeast  Level Estimated
05:00PM 25.9560 50.9427 141° Southeast  Level Estimated
05:01PM 25.8639 51.0257 141° Southeast  Level Estimated
05:02PM 25.7717 51.1087 141° Southeast  Level Estimated
05:03PM 25.6795 51.1915 141° Southeast  Level Estimated
05:04PM 25.5872 51.2742 141° Southeast  Level Estimated
05:05PM 25.4949 51.3568 141° Southeast  Level Estimated
05:06PM 25.4025 51.4392 141° Southeast  Level Estimated
05:07PM 25.3101 51.5215 141° Southeast  Level Estimated
05:08PM 25.2611 51.5651 141° Southeast  Level Estimated
05:09PM 25.2611 51.5651 324° Northwest  Level Estimated
05:10PM 25.2611 51.5651 324° Northwest  Level Estimated
05:11PM 25.2611 51.5651 324° Northwest  Level Estimated
05:12PM 25.2611 51.5651 324° Northwest  Level Estimated
05:13PM 25.2611 51.5651 324° Northwest  Level Estimated
05:14PM 25.2611 51.5651 324° Northwest  Level Estimated
05:15PM 25.2611 51.5651 324° Northwest  Level Estimated
05:16PM 25.2611 51.5651 324° Northwest  Level Estimated
05:17PM 25.2611 51.5651 324° Northwest  Level Estimated
05:18PM 25.2611 51.5651 324° Northwest  Level Estimated
05:19PM 25.2611 51.5651 324° Northwest  Level Estimated